Time;durP1;ratioP1;P1;durP2;ratioP2;P2;SDS_P1;SDS_P2;PMS_P1;PMS_P2;Temp;Humidity;BMP_temperature;BMP_pressure;BME280_temperature;BME280_humidity;BME280_pressure;Samples;Min_cycle;Max_cycle;Signal;HPM_P1;HPM_P2
2022/12/04 00:02:16;;;;;;;;;;;;;;;3.45;74.06;98016.50;7389853;19;19919;-74
2022/12/04 00:04:43;;;;;;;;;;;;;;;3.41;73.89;98018.53;7389964;19;19946;-74
2022/12/04 00:07:10;;;;;;;;;;;;;;;3.47;73.93;98015.44;7392302;19;19911;-74
2022/12/04 00:09:37;;;;;;;;;;;;;;;3.41;73.97;98015.94;7392724;19;19915;-74
2022/12/04 00:12:04;;;;;;;;;;;;;;;3.48;74.31;98021.53;7393662;19;19936;-74
2022/12/04 00:14:30;;;;;;;;;;;;;;;3.46;74.51;98008.56;7389859;19;19919;-74
2022/12/04 00:16:57;;;;;;;;;;;;;;;3.26;74.00;98017.13;7392369;19;20583;-75
2022/12/04 00:19:24;;;;;;;;;;;;;;;3.30;74.25;98011.53;7392785;19;19946;-74
2022/12/04 00:21:50;;;;;;;;;;;;;;;3.52;74.25;98004.63;7390682;19;19918;-74
2022/12/04 00:24:17;;;;;;;;;;;;;;;3.47;74.55;98009.38;7386453;19;19918;-74
2022/12/04 00:26:43;;;;;;;;;;;;;;;3.40;74.19;98010.84;7391347;19;19929;-75
2022/12/04 00:29:10;;;;;;;;;;;;;;;3.46;74.83;97992.88;7393843;19;19915;-74
2022/12/04 00:31:39;;;;;;;;;;;;;;;3.44;74.80;98000.00;7389476;19;19994;-74
2022/12/04 00:34:06;;;;;;;;;;;;;;;3.43;74.18;98002.75;7389624;19;20329;-74
2022/12/04 00:36:33;;;;;;;;;;;;;;;3.47;73.91;97997.13;7391273;19;19970;-74
2022/12/04 00:39:00;;;;;;;;;;;;;;;3.52;74.24;97991.53;7390074;19;20363;-74
2022/12/04 00:41:27;;;;;;;;;;;;;;;3.51;74.64;97995.94;7387882;19;19922;-74
2022/12/04 00:43:54;;;;;;;;;;;;;;;3.63;74.49;97988.09;7389304;19;19957;-74
2022/12/04 00:46:21;;;;;;;;;;;;;;;3.63;74.26;97990.69;7388747;19;19923;-74
2022/12/04 00:48:47;;;;;;;;;;;;;;;3.50;74.81;97986.47;7389068;19;19923;-74
2022/12/04 00:51:15;;;;;;;;;;;;;;;3.48;74.71;97992.75;7389151;19;19927;-75
2022/12/04 00:53:41;;;;;;;;;;;;;;;3.52;75.17;97996.78;7386056;19;19951;-74
2022/12/04 00:56:09;;;;;;;;;;;;;;;3.54;74.90;98001.91;7391120;19;20025;-74
2022/12/04 00:58:35;;;;;;;;;;;;;;;3.65;74.99;97989.63;7390643;19;19915;-74
2022/12/04 01:01:03;;;;;;;;;;;;;;;3.69;74.86;97992.84;7389575;19;19931;-74
2022/12/04 01:03:30;;;;;;;;;;;;;;;3.55;75.05;97990.47;7389389;19;20002;-74
2022/12/04 01:05:57;;;;;;;;;;;;;;;3.56;74.22;97982.53;7384580;19;19919;-74
2022/12/04 01:08:23;;;;;;;;;;;;;;;3.42;75.23;97985.38;7384311;19;20370;-74
2022/12/04 01:10:50;;;;;;;;;;;;;;;3.44;75.47;97984.31;7376014;19;19932;-74
2022/12/04 01:13:17;;;;;;;;;;;;;;;3.55;74.89;97986.06;7376717;19;19926;-74
2022/12/04 01:15:43;;;;;;;;;;;;;;;3.50;74.49;97989.06;7381014;19;19966;-74
2022/12/04 01:18:11;;;;;;;;;;;;;;;3.48;75.02;97977.91;7382872;19;19922;-74
2022/12/04 01:20:37;;;;;;;;;;;;;;;3.58;74.54;97977.16;7381342;19;19939;-74
2022/12/04 01:23:04;;;;;;;;;;;;;;;3.52;75.00;97973.25;7385883;19;19923;-74
2022/12/04 01:25:30;;;;;;;;;;;;;;;3.39;74.37;97975.16;7381976;19;19918;-74
2022/12/04 01:27:57;;;;;;;;;;;;;;;3.33;75.09;97975.66;7386115;19;19918;-74
2022/12/04 01:30:23;;;;;;;;;;;;;;;3.46;75.62;97982.41;7382609;19;19918;-74
2022/12/04 01:32:50;;;;;;;;;;;;;;;3.52;75.24;97981.91;7386293;19;19930;-74
2022/12/04 01:35:16;;;;;;;;;;;;;;;3.53;75.01;97980.16;7382512;19;19919;-74
2022/12/04 01:37:43;;;;;;;;;;;;;;;3.58;75.11;97982.38;7386818;19;19915;-74
2022/12/04 01:40:13;;;;;;;;;;;;;;;3.60;75.31;97977.88;7386686;19;19931;-74
2022/12/04 01:42:40;;;;;;;;;;;;;;;3.63;75.39;97972.38;7378087;19;19939;-74
2022/12/04 01:45:26;;;;;;;;;;;;;;;3.49;75.07;97976.94;7380784;19;19921;-74
2022/12/04 01:47:53;;;;;;;;;;;;;;;3.59;74.58;97971.00;7386502;19;19922;-74
2022/12/04 01:50:19;;;;;;;;;;;;;;;3.58;74.87;97977.16;7381904;19;19919;-74
2022/12/04 01:52:46;;;;;;;;;;;;;;;3.54;75.17;97979.19;7381897;19;19925;-74
2022/12/04 01:55:13;;;;;;;;;;;;;;;3.64;75.05;97971.44;7384006;19;19946;-74
2022/12/04 01:57:41;;;;;;;;;;;;;;;3.50;75.11;97965.53;7390041;19;19922;-74
2022/12/04 02:00:09;;;;;;;;;;;;;;;3.64;75.24;97968.84;7389367;19;19946;-74
2022/12/04 02:02:38;;;;;;;;;;;;;;;3.62;75.11;97973.34;7385705;19;19930;-75
2022/12/04 02:05:06;;;;;;;;;;;;;;;3.69;74.71;97983.22;7384844;19;19953;-74
2022/12/04 02:07:33;;;;;;;;;;;;;;;3.61;75.08;97990.00;7388006;19;19927;-74
2022/12/04 02:10:05;;;;;;;;;;;;;;;3.56;74.68;97990.38;7388530;19;19919;-74
2022/12/04 02:12:32;;;;;;;;;;;;;;;3.63;75.01;97980.22;7383829;19;19926;-74
2022/12/04 02:15:05;;;;;;;;;;;;;;;3.64;74.94;97974.06;7385565;19;19946;-74
2022/12/04 02:17:50;;;;;;;;;;;;;;;3.62;75.40;97974.19;7387077;19;19927;-74
2022/12/04 02:20:16;;;;;;;;;;;;;;;3.65;75.52;97973.09;7385815;19;19926;-74
2022/12/04 02:22:48;;;;;;;;;;;;;;;3.59;75.89;97963.13;7389650;19;19939;-75
2022/12/04 02:25:21;;;;;;;;;;;;;;;3.69;75.47;97967.50;7388027;19;19942;-74
2022/12/04 02:27:58;;;;;;;;;;;;;;;3.66;75.77;97964.28;7394987;19;19955;-74
2022/12/04 02:30:26;;;;;;;;;;;;;;;3.65;76.28;97949.56;7393659;19;19911;-74
2022/12/04 02:32:56;;;;;;;;;;;;;;;3.56;74.49;97956.38;7394645;19;19935;-74
2022/12/04 02:35:22;;;;;;;;;;;;;;;3.58;74.81;97954.47;7393884;19;20343;-74
2022/12/04 02:37:51;;;;;;;;;;;;;;;3.65;74.62;97958.22;7394727;19;19942;-74
2022/12/04 02:40:24;;;;;;;;;;;;;;;3.52;75.06;97955.75;7392350;19;19918;-74
2022/12/04 02:42:53;;;;;;;;;;;;;;;3.60;75.11;97962.19;7396185;19;20258;-74
2022/12/04 02:45:21;;;;;;;;;;;;;;;3.66;74.94;97956.44;7388189;19;19930;-74
2022/12/04 02:47:47;;;;;;;;;;;;;;;3.60;74.54;97962.19;7394389;19;20302;-74
2022/12/04 02:50:15;;;;;;;;;;;;;;;3.68;74.90;97955.38;7389883;19;19919;-74
2022/12/04 02:52:43;;;;;;;;;;;;;;;3.62;75.27;97948.03;7391546;19;19927;-74
2022/12/04 02:55:13;;;;;;;;;;;;;;;3.72;74.91;97961.22;7391653;19;19927;-74
2022/12/04 02:57:41;;;;;;;;;;;;;;;3.89;73.17;97951.97;7393876;19;19946;-74
2022/12/04 03:00:07;;;;;;;;;;;;;;;3.84;73.84;97947.13;7392957;19;19947;-74
2022/12/04 03:02:37;;;;;;;;;;;;;;;3.65;74.53;97941.72;7393643;19;19915;-74
2022/12/04 03:05:04;;;;;;;;;;;;;;;3.71;74.72;97943.81;7389318;19;19922;-74
2022/12/04 03:07:36;;;;;;;;;;;;;;;3.67;75.31;97939.81;7389488;19;19961;-74
2022/12/04 03:10:11;;;;;;;;;;;;;;;3.78;74.84;97942.38;7389775;19;19944;-74
2022/12/04 03:12:43;;;;;;;;;;;;;;;3.62;75.06;97944.59;7391071;19;20755;-74
2022/12/04 03:15:27;;;;;;;;;;;;;;;3.69;75.18;97941.34;7387829;19;19938;-74
2022/12/04 03:17:59;;;;;;;;;;;;;;;3.69;74.93;97940.53;7387195;19;19955;-74
2022/12/04 03:20:26;;;;;;;;;;;;;;;3.66;75.00;97935.50;7390836;19;19926;-75
2022/12/04 03:22:54;;;;;;;;;;;;;;;3.75;74.75;97919.09;7390686;19;19951;-74
2022/12/04 03:25:22;;;;;;;;;;;;;;;3.71;74.84;97923.75;7385944;19;20359;-74
2022/12/04 03:27:59;;;;;;;;;;;;;;;3.73;74.94;97921.00;7388426;19;19950;-74
2022/12/04 03:30:26;;;;;;;;;;;;;;;3.60;75.18;97926.38;7389000;19;19939;-74
2022/12/04 03:32:55;;;;;;;;;;;;;;;3.79;74.29;97927.50;7390433;19;19919;-74
2022/12/04 03:35:24;;;;;;;;;;;;;;;3.73;75.15;97926.22;7382395;19;19919;-74
2022/12/04 03:37:59;;;;;;;;;;;;;;;3.60;75.11;97925.56;7385716;19;19966;-74
2022/12/04 03:40:43;;;;;;;;;;;;;;;3.59;75.40;97923.91;7384194;19;19944;-74
2022/12/04 03:43:15;;;;;;;;;;;;;;;3.71;75.75;97923.75;7390073;19;19927;-74
2022/12/04 03:45:43;;;;;;;;;;;;;;;3.80;75.56;97916.94;7386768;19;19999;-74
2022/12/04 03:48:09;;;;;;;;;;;;;;;3.86;74.89;97913.00;7389314;19;19986;-74
2022/12/04 03:50:46;;;;;;;;;;;;;;;3.81;74.92;97905.50;7386131;19;20893;-74
2022/12/04 03:53:16;;;;;;;;;;;;;;;3.64;75.74;97919.13;7384210;19;19930;-74
2022/12/04 03:55:44;;;;;;;;;;;;;;;3.79;75.68;97925.75;7386357;19;19963;-74
2022/12/04 03:58:12;;;;;;;;;;;;;;;3.82;75.28;97919.41;7387964;19;19955;-74
2022/12/04 04:00:40;;;;;;;;;;;;;;;3.69;75.27;97917.81;7377807;19;19922;-75
2022/12/04 04:03:12;;;;;;;;;;;;;;;3.74;75.12;97920.88;7375555;19;19923;-74
2022/12/04 04:05:40;;;;;;;;;;;;;;;3.77;74.71;97919.81;7372048;19;20316;-75
2022/12/04 04:08:25;;;;;;;;;;;;;;;3.81;74.83;97915.97;7380791;19;22055;-74
2022/12/04 04:10:52;;;;;;;;;;;;;;;3.65;75.07;97920.78;7377953;19;20326;-74
2022/12/04 04:24:27;;;;;;;;;;;;;;;3.73;74.18;97955.00;7373589;19;19915;-74
2022/12/04 04:26:54;;;;;;;;;;;;;;;3.71;74.14;97957.75;7374254;19;19930;-73
2022/12/04 04:29:21;;;;;;;;;;;;;;;3.71;74.61;97949.91;7376095;19;19930;-73
2022/12/04 04:31:55;;;;;;;;;;;;;;;3.72;74.60;97950.75;7372418;19;20290;-73
2022/12/04 04:34:31;;;;;;;;;;;;;;;3.76;74.57;97954.75;7373833;19;19929;-74
2022/12/04 04:37:00;;;;;;;;;;;;;;;3.55;74.97;97952.06;7374631;19;19922;-74
2022/12/04 04:39:34;;;;;;;;;;;;;;;3.59;75.23;97953.50;7377135;19;19926;-74
2022/12/04 04:42:06;;;;;;;;;;;;;;;3.62;74.96;97953.25;7373398;19;19982;-74
2022/12/04 04:44:56;;;;;;;;;;;;;;;3.63;74.51;97951.47;7371887;19;20760;-74
2022/12/04 04:47:26;;;;;;;;;;;;;;;3.71;74.27;97952.53;7373769;19;19942;-74
2022/12/04 04:49:53;;;;;;;;;;;;;;;3.55;75.18;97946.00;7373006;19;19925;-74
2022/12/04 04:52:20;;;;;;;;;;;;;;;3.57;75.27;97944.13;7375302;19;19922;-74
2022/12/04 04:54:47;;;;;;;;;;;;;;;3.57;75.42;97946.72;7373016;19;19926;-74
2022/12/04 04:57:24;;;;;;;;;;;;;;;3.61;75.18;97949.00;7379571;19;19918;-74
2022/12/04 04:59:51;;;;;;;;;;;;;;;3.66;74.79;97936.38;7383603;19;19919;-74
2022/12/04 05:02:17;;;;;;;;;;;;;;;3.52;75.90;97947.91;7382041;19;19929;-74
2022/12/04 05:04:44;;;;;;;;;;;;;;;3.65;75.90;97962.63;7375705;19;19996;-74
2022/12/04 05:07:10;;;;;;;;;;;;;;;3.69;75.46;97957.06;7377610;19;20508;-74
2022/12/04 05:09:37;;;;;;;;;;;;;;;3.67;75.56;97960.75;7378229;19;20357;-74
2022/12/04 05:12:07;;;;;;;;;;;;;;;3.73;75.06;97960.25;7385377;19;19922;-74
2022/12/04 05:14:34;;;;;;;;;;;;;;;3.80;75.34;97957.97;7371735;19;21589;-74
2022/12/04 05:17:00;;;;;;;;;;;;;;;3.78;75.60;97957.25;7375372;19;19940;-75
2022/12/04 05:22:16;;;;;;;;;;;;;;;3.81;75.43;97950.00;7376579;19;19933;-74
2022/12/04 05:24:43;;;;;;;;;;;;;;;3.81;75.36;97947.38;7374422;19;19946;-74
2022/12/04 05:27:09;;;;;;;;;;;;;;;3.69;74.48;97951.00;7372347;19;19956;-74
2022/12/04 05:29:36;;;;;;;;;;;;;;;3.63;74.49;97957.53;7377422;19;19927;-74
2022/12/04 05:32:03;;;;;;;;;;;;;;;3.46;75.06;97950.19;7378548;19;20243;-74
2022/12/04 05:34:29;;;;;;;;;;;;;;;3.72;74.38;97945.50;7373753;19;19956;-74
2022/12/04 05:36:56;;;;;;;;;;;;;;;3.56;74.89;97939.84;7373851;19;20539;-74
2022/12/04 05:39:22;;;;;;;;;;;;;;;3.48;75.06;97946.50;7374917;19;19947;-74
2022/12/04 05:41:49;;;;;;;;;;;;;;;3.37;75.40;97953.53;7376714;19;19957;-74
2022/12/04 05:44:15;;;;;;;;;;;;;;;3.54;75.39;97947.81;7372374;19;19983;-74
2022/12/04 05:46:42;;;;;;;;;;;;;;;3.52;75.38;97941.84;7367721;19;20014;-74
2022/12/04 05:49:09;;;;;;;;;;;;;;;3.56;75.25;97940.66;7376168;19;19918;-74
2022/12/04 05:51:35;;;;;;;;;;;;;;;3.57;75.13;97938.88;7372060;19;19922;-74
2022/12/04 05:54:02;;;;;;;;;;;;;;;3.51;75.47;97933.19;7373566;19;19936;-74
2022/12/04 05:56:29;;;;;;;;;;;;;;;3.52;76.01;97936.63;7376204;19;19919;-74
2022/12/04 05:58:55;;;;;;;;;;;;;;;3.62;76.16;97934.13;7371918;19;19923;-74
2022/12/04 06:01:22;;;;;;;;;;;;;;;3.69;75.66;97937.91;7370524;19;19946;-74
2022/12/04 06:03:49;;;;;;;;;;;;;;;3.64;76.08;97942.69;7372244;19;19932;-74
2022/12/04 06:06:24;;;;;;;;;;;;;;;3.62;75.66;97942.78;7372070;19;19923;-74
2022/12/04 06:08:51;;;;;;;;;;;;;;;3.64;76.09;97943.50;7372046;19;19930;-74
2022/12/04 06:11:19;;;;;;;;;;;;;;;3.60;76.13;97946.47;7370987;19;19947;-74
2022/12/04 06:13:46;;;;;;;;;;;;;;;3.58;75.25;97940.53;7375402;19;19947;-74
2022/12/04 06:16:14;;;;;;;;;;;;;;;3.69;74.58;97943.97;7371278;19;19923;-74
2022/12/04 06:18:41;;;;;;;;;;;;;;;3.68;75.47;97944.06;7369863;19;19915;-74
2022/12/04 06:21:07;;;;;;;;;;;;;;;3.63;75.15;97941.00;7371516;19;19956;-74
2022/12/04 06:23:34;;;;;;;;;;;;;;;3.66;75.37;97944.22;7372328;19;19941;-73
2022/12/04 06:26:02;;;;;;;;;;;;;;;3.73;74.97;97934.91;7372034;19;19927;-74
2022/12/04 06:28:33;;;;;;;;;;;;;;;3.56;75.67;97942.47;7373277;19;20274;-74
2022/12/04 06:31:03;;;;;;;;;;;;;;;3.54;75.86;97942.56;7374976;19;19923;-74
2022/12/04 06:33:30;;;;;;;;;;;;;;;3.63;75.63;97941.00;7381020;19;19919;-74
2022/12/04 06:36:01;;;;;;;;;;;;;;;3.71;75.47;97939.44;7368406;19;20371;-74
2022/12/04 06:38:29;;;;;;;;;;;;;;;3.66;75.34;97932.91;7371915;19;19946;-74
2022/12/04 06:40:55;;;;;;;;;;;;;;;3.69;75.41;97935.28;7369367;19;19919;-74
2022/12/04 06:43:22;;;;;;;;;;;;;;;3.72;75.61;97941.09;7374329;19;19935;-74
2022/12/04 06:45:58;;;;;;;;;;;;;;;3.77;75.80;97942.53;7369707;19;19960;-74
2022/12/04 06:48:24;;;;;;;;;;;;;;;3.63;76.30;97939.22;7380090;19;19927;-74
2022/12/04 06:50:57;;;;;;;;;;;;;;;3.71;75.06;97942.06;7370508;19;20887;-75
2022/12/04 06:53:23;;;;;;;;;;;;;;;3.76;75.28;97936.44;7373133;19;20594;-74
2022/12/04 06:55:50;;;;;;;;;;;;;;;3.73;75.56;97944.53;7369625;19;19943;-74
2022/12/04 06:58:16;;;;;;;;;;;;;;;3.56;75.23;97951.13;7384471;19;19926;-74
2022/12/04 07:00:43;;;;;;;;;;;;;;;3.60;75.55;97943.88;7372175;19;20004;-74
2022/12/04 07:03:10;;;;;;;;;;;;;;;3.67;75.03;97940.63;7368741;19;19929;-74
2022/12/04 07:05:37;;;;;;;;;;;;;;;3.72;75.48;97941.09;7368044;19;19926;-74
2022/12/04 07:08:03;;;;;;;;;;;;;;;3.69;75.48;97948.38;7374510;19;19935;-74
2022/12/04 07:10:30;;;;;;;;;;;;;;;3.82;75.89;97941.19;7370921;19;19919;-74
2022/12/04 07:12:57;;;;;;;;;;;;;;;3.85;75.91;97945.34;7375744;19;20342;-74
2022/12/04 07:15:24;;;;;;;;;;;;;;;3.89;75.60;97951.97;7375951;19;19923;-74
2022/12/04 07:17:51;;;;;;;;;;;;;;;3.85;76.32;97945.34;7379146;19;20005;-74
2022/12/04 07:20:17;;;;;;;;;;;;;;;3.89;75.86;97954.59;7378394;19;19926;-74
2022/12/04 07:22:44;;;;;;;;;;;;;;;3.88;75.68;97951.16;7374506;19;19929;-74
2022/12/04 07:25:10;;;;;;;;;;;;;;;3.88;75.73;97947.72;7378574;19;20346;-74
2022/12/04 07:27:37;;;;;;;;;;;;;;;3.86;75.93;97952.25;7369502;19;20611;-74
2022/12/04 07:30:04;;;;;;;;;;;;;;;3.99;75.73;97946.84;7376386;19;19931;-74
2022/12/04 07:32:36;;;;;;;;;;;;;;;3.92;75.79;97941.25;7376768;19;19952;-74
2022/12/04 07:35:03;;;;;;;;;;;;;;;3.96;75.92;97943.50;7387107;19;19943;-74
2022/12/04 07:37:31;;;;;;;;;;;;;;;3.99;75.53;97947.66;7391043;19;19940;-74
2022/12/04 07:39:57;;;;;;;;;;;;;;;3.88;75.26;97940.69;7391740;19;19939;-74
2022/12/04 07:42:24;;;;;;;;;;;;;;;3.86;75.53;97942.59;7393231;19;19923;-74
2022/12/04 07:44:50;;;;;;;;;;;;;;;3.83;75.23;97936.78;7393843;19;19950;-74
2022/12/04 07:47:17;;;;;;;;;;;;;;;3.97;75.06;97939.09;7390417;19;19929;-74
2022/12/04 07:49:44;;;;;;;;;;;;;;;3.99;75.28;97944.22;7392700;19;19918;-74
2022/12/04 07:52:10;;;;;;;;;;;;;;;4.02;75.13;97941.34;7394196;19;19919;-74
2022/12/04 07:54:37;;;;;;;;;;;;;;;3.95;75.49;97956.75;7390846;19;19923;-74
2022/12/04 07:57:03;;;;;;;;;;;;;;;4.05;75.37;97947.16;7393602;19;20369;-74
2022/12/04 07:59:30;;;;;;;;;;;;;;;3.99;75.71;97954.69;7395233;19;19919;-74
2022/12/04 08:01:57;;;;;;;;;;;;;;;4.05;74.38;97969.91;7393435;19;19914;-74
2022/12/04 08:04:23;;;;;;;;;;;;;;;4.02;74.36;97963.13;7389481;19;19934;-74
2022/12/04 08:06:50;;;;;;;;;;;;;;;3.97;74.54;97960.03;7393848;19;19914;-74
2022/12/04 08:09:17;;;;;;;;;;;;;;;3.93;75.01;97954.25;7393487;19;19939;-74
2022/12/04 08:11:43;;;;;;;;;;;;;;;3.91;75.09;97958.75;7391880;19;19938;-74
2022/12/04 08:14:10;;;;;;;;;;;;;;;3.90;75.01;97951.88;7392312;19;19922;-74
2022/12/04 08:16:36;;;;;;;;;;;;;;;4.04;75.24;97945.50;7393786;19;19943;-74
2022/12/04 08:19:04;;;;;;;;;;;;;;;4.14;75.10;97946.44;7391520;19;19933;-74
2022/12/04 08:21:30;;;;;;;;;;;;;;;4.08;75.29;97956.56;7392246;19;19923;-74
2022/12/04 08:23:58;;;;;;;;;;;;;;;4.29;74.73;97946.09;7389196;19;20845;-74
2022/12/04 08:26:25;;;;;;;;;;;;;;;4.18;74.92;97952.22;7391088;19;19919;-74
2022/12/04 08:28:52;;;;;;;;;;;;;;;4.08;74.99;97946.94;7390910;19;19937;-74
2022/12/04 08:31:20;;;;;;;;;;;;;;;4.19;74.80;97951.28;7390295;19;19926;-74
2022/12/04 08:33:47;;;;;;;;;;;;;;;4.12;74.90;97950.94;7391482;19;19943;-74
2022/12/04 08:36:15;;;;;;;;;;;;;;;4.24;74.34;97950.88;7389922;19;19934;-74
2022/12/04 08:38:42;;;;;;;;;;;;;;;4.21;74.73;97951.97;7390194;19;20370;-74
2022/12/04 08:41:10;;;;;;;;;;;;;;;4.15;74.90;97958.53;7388355;19;19929;-73
2022/12/04 08:43:40;;;;;;;;;;;;;;;4.11;75.32;97966.78;7392861;19;19930;-73
2022/12/04 08:46:08;;;;;;;;;;;;;;;4.18;75.01;97960.91;7391892;19;19954;-74
2022/12/04 08:48:38;;;;;;;;;;;;;;;4.21;74.23;97962.44;7390372;19;20338;-73
2022/12/04 08:51:07;;;;;;;;;;;;;;;4.17;74.51;97974.16;7391755;19;19918;-73
2022/12/04 08:53:42;;;;;;;;;;;;;;;4.28;74.61;97974.09;7392558;19;19919;-74
2022/12/04 08:56:08;;;;;;;;;;;;;;;4.35;74.46;97974.44;7393115;19;19934;-73
2022/12/04 08:58:36;;;;;;;;;;;;;;;4.34;74.21;97984.03;7393245;19;19935;-73
2022/12/04 09:01:10;;;;;;;;;;;;;;;4.32;74.17;97983.38;7390749;19;19933;-74
2022/12/04 09:03:51;;;;;;;;;;;;;;;4.34;74.48;97984.03;7390505;19;19919;-74
2022/12/04 09:06:18;;;;;;;;;;;;;;;4.23;74.31;97981.47;7388963;19;19992;-74
2022/12/04 09:08:45;;;;;;;;;;;;;;;4.30;74.37;97987.88;7394353;19;20322;-74
2022/12/04 09:11:13;;;;;;;;;;;;;;;4.38;74.01;97997.75;7389848;19;20287;-74
2022/12/04 09:13:39;;;;;;;;;;;;;;;4.28;74.38;98000.28;7391904;19;19930;-74
2022/12/04 09:16:09;;;;;;;;;;;;;;;4.28;74.81;98000.28;7389166;19;19955;-74
2022/12/04 09:18:36;;;;;;;;;;;;;;;4.31;74.77;98000.00;7386909;19;19926;-73
2022/12/04 09:21:04;;;;;;;;;;;;;;;4.49;73.52;97994.22;7391313;19;19930;-74
2022/12/04 09:23:34;;;;;;;;;;;;;;;4.35;74.08;97988.34;7394464;19;19934;-73
2022/12/04 09:26:01;;;;;;;;;;;;;;;4.26;74.71;97993.50;7389013;19;19919;-74
2022/12/04 09:28:31;;;;;;;;;;;;;;;4.23;75.14;97999.81;7389514;19;20515;-73
2022/12/04 09:30:58;;;;;;;;;;;;;;;4.34;74.29;97984.03;7392641;19;20335;-74
2022/12/04 09:33:27;;;;;;;;;;;;;;;4.38;73.79;97975.00;7389119;19;19918;-74
2022/12/04 09:35:54;;;;;;;;;;;;;;;4.28;74.06;97968.84;7389125;19;20672;-74
2022/12/04 09:38:21;;;;;;;;;;;;;;;4.29;74.07;97959.19;7392320;19;19915;-74
2022/12/04 09:41:08;;;;;;;;;;;;;;;4.31;74.33;97958.13;7389561;19;19936;-74
2022/12/04 09:43:43;;;;;;;;;;;;;;;4.34;74.58;97946.56;7392477;19;19922;-75
2022/12/04 09:46:23;;;;;;;;;;;;;;;4.31;74.17;97950.25;7390114;19;19929;-75
2022/12/04 09:48:55;;;;;;;;;;;;;;;4.37;74.66;97949.78;7387377;19;19926;-76
2022/12/04 09:51:26;;;;;;;;;;;;;;;4.34;73.91;97939.53;7388864;19;19915;-75
2022/12/04 09:54:07;;;;;;;;;;;;;;;4.40;73.75;97936.41;7389419;19;19922;-75
2022/12/04 09:56:58;;;;;;;;;;;;;;;4.43;74.12;97918.78;7389811;19;20254;-75
2022/12/04 09:59:26;;;;;;;;;;;;;;;4.28;74.48;97918.28;7386225;19;20271;-75
2022/12/04 10:02:09;;;;;;;;;;;;;;;4.39;73.76;97913.78;7391424;19;19914;-75
2022/12/04 10:04:36;;;;;;;;;;;;;;;4.28;74.57;97915.66;7386632;19;19911;-75
2022/12/04 10:07:07;;;;;;;;;;;;;;;4.38;74.48;97909.53;7388762;19;19926;-74
2022/12/04 10:09:39;;;;;;;;;;;;;;;4.54;74.14;97895.97;7385369;19;19919;-74
2022/12/04 10:12:24;;;;;;;;;;;;;;;4.36;74.06;97905.38;7387914;19;19943;-75
2022/12/04 10:14:53;;;;;;;;;;;;;;;4.30;74.53;97901.47;7388172;19;20298;-74
2022/12/04 10:17:39;;;;;;;;;;;;;;;4.48;74.67;97900.91;7389688;19;19943;-75
2022/12/04 10:20:24;;;;;;;;;;;;;;;4.59;74.36;97908.69;7387784;19;19919;-74
2022/12/04 10:23:06;;;;;;;;;;;;;;;4.56;74.25;97907.16;7388967;19;19922;-74
2022/12/04 10:25:39;;;;;;;;;;;;;;;4.51;74.51;97900.66;7388303;19;19950;-75
2022/12/04 10:28:11;;;;;;;;;;;;;;;4.70;74.02;97900.72;7385660;19;19942;-74
2022/12/04 10:30:38;;;;;;;;;;;;;;;4.52;73.75;97891.81;7382696;19;19922;-74
2022/12/04 10:33:16;;;;;;;;;;;;;;;4.47;73.20;97896.59;7383524;19;19926;-74
2022/12/04 10:35:45;;;;;;;;;;;;;;;4.40;74.22;97898.94;7385432;19;19929;-74
2022/12/04 10:38:19;;;;;;;;;;;;;;;4.39;74.55;97900.69;7388712;19;19919;-74
2022/12/04 10:40:47;;;;;;;;;;;;;;;4.56;74.56;97907.16;7384333;19;19954;-74
2022/12/04 10:43:22;;;;;;;;;;;;;;;4.35;74.60;97911.56;7386974;19;19979;-74
2022/12/04 10:45:49;;;;;;;;;;;;;;;4.39;75.12;97915.59;7385615;19;19941;-74
2022/12/04 10:48:18;;;;;;;;;;;;;;;4.54;74.36;97921.34;7392838;19;19922;-74
2022/12/04 10:50:45;;;;;;;;;;;;;;;4.48;73.75;97906.97;7392149;19;19922;-74
2022/12/04 10:53:13;;;;;;;;;;;;;;;4.42;74.44;97915.31;7394385;19;19918;-75
2022/12/04 10:55:39;;;;;;;;;;;;;;;4.54;73.92;97916.09;7394050;19;19927;-75
2022/12/04 10:58:19;;;;;;;;;;;;;;;4.49;73.75;97919.09;7391497;19;20347;-74
2022/12/04 11:00:58;;;;;;;;;;;;;;;4.44;74.11;97909.97;7395130;19;19980;-75
2022/12/04 11:03:25;;;;;;;;;;;;;;;4.43;74.43;97911.75;7390685;19;19945;-75
2022/12/04 11:05:56;;;;;;;;;;;;;;;4.44;73.23;97907.34;7390039;19;20272;-75
2022/12/04 11:08:24;;;;;;;;;;;;;;;4.43;74.10;97898.66;7390357;19;19927;-75
2022/12/04 11:10:55;;;;;;;;;;;;;;;4.53;74.03;97903.94;7391071;19;19967;-75
2022/12/04 11:13:23;;;;;;;;;;;;;;;4.56;73.73;97896.66;7392151;19;19914;-74
2022/12/04 11:15:51;;;;;;;;;;;;;;;4.54;73.54;97895.13;7395375;19;19927;-74
2022/12/04 11:18:19;;;;;;;;;;;;;;;4.38;73.48;97893.81;7395438;19;19919;-75
2022/12/04 11:20:59;;;;;;;;;;;;;;;4.36;74.25;97892.28;7393064;19;19919;-75
2022/12/04 11:23:26;;;;;;;;;;;;;;;4.72;72.94;97896.19;7394097;19;19919;-74
2022/12/04 11:25:53;;;;;;;;;;;;;;;4.67;72.47;97893.13;7393078;19;20267;-74
2022/12/04 11:28:24;;;;;;;;;;;;;;;4.55;73.11;97891.53;7393857;19;20457;-74
2022/12/04 11:31:07;;;;;;;;;;;;;;;4.49;73.64;97887.66;7394464;19;19915;-74
2022/12/04 11:33:36;;;;;;;;;;;;;;;4.51;74.23;97887.53;7391993;19;19926;-75
2022/12/04 11:36:05;;;;;;;;;;;;;;;4.53;73.17;97880.38;7393949;19;19925;-75
2022/12/04 11:38:32;;;;;;;;;;;;;;;4.54;73.55;97871.56;7394446;19;20090;-75
2022/12/04 11:40:59;;;;;;;;;;;;;;;4.65;74.00;97881.94;7392240;19;19933;-74
2022/12/04 11:43:27;;;;;;;;;;;;;;;4.74;73.45;97890.81;7385980;19;19923;-75
2022/12/04 11:45:54;;;;;;;;;;;;;;;4.65;73.87;97895.06;7387193;19;19932;-75
2022/12/04 11:48:21;;;;;;;;;;;;;;;4.65;74.03;97908.16;7389496;19;19939;-75
2022/12/04 11:51:00;;;;;;;;;;;;;;;4.59;74.24;97898.19;7391543;19;20381;-75
2022/12/04 11:53:43;;;;;;;;;;;;;;;4.36;74.45;97910.59;7393844;19;19923;-75
2022/12/04 11:56:15;;;;;;;;;;;;;;;4.64;75.02;97901.25;7389214;19;20394;-74
2022/12/04 11:58:50;;;;;;;;;;;;;;;4.75;74.59;97898.56;7387986;19;19914;-75
2022/12/04 12:01:25;;;;;;;;;;;;;;;4.80;74.05;97899.00;7384550;19;20347;-74
2022/12/04 12:04:01;;;;;;;;;;;;;;;4.82;74.29;97888.41;7387170;19;19922;-74
2022/12/04 12:06:38;;;;;;;;;;;;;;;4.67;74.65;97882.66;7373897;19;19922;-75
2022/12/04 12:09:04;;;;;;;;;;;;;;;4.89;74.05;97862.47;7390099;19;19948;-75
2022/12/04 12:11:41;;;;;;;;;;;;;;;4.95;73.92;97856.69;7390766;19;19914;-75
2022/12/04 12:14:08;;;;;;;;;;;;;;;4.76;74.10;97867.94;7390189;19;19955;-75
2022/12/04 12:16:38;;;;;;;;;;;;;;;4.84;74.10;97866.34;7385399;19;19922;-75
2022/12/04 12:19:07;;;;;;;;;;;;;;;4.87;74.26;97861.75;7386725;19;19950;-75
2022/12/04 12:21:38;;;;;;;;;;;;;;;4.91;74.24;97853.50;7390852;19;19941;-74
2022/12/04 12:24:11;;;;;;;;;;;;;;;4.95;74.13;97857.53;7389434;19;20354;-75
2022/12/04 12:26:46;;;;;;;;;;;;;;;5.08;73.42;97841.53;7387597;19;19932;-75
2022/12/04 12:29:12;;;;;;;;;;;;;;;4.95;73.65;97841.81;7391894;19;20239;-75
2022/12/04 12:32:02;;;;;;;;;;;;;;;5.10;73.82;97839.63;7384263;19;19947;-75
2022/12/04 12:34:39;;;;;;;;;;;;;;;5.15;73.29;97832.19;7382369;19;19930;-75
2022/12/04 12:37:25;;;;;;;;;;;;;;;5.18;73.33;97831.91;7385446;19;19918;-75
2022/12/04 12:39:55;;;;;;;;;;;;;;;5.07;73.53;97834.66;7389025;19;19926;-75
2022/12/04 12:42:38;;;;;;;;;;;;;;;5.12;73.74;97844.75;7391525;19;19922;-75
2022/12/04 12:45:23;;;;;;;;;;;;;;;5.07;73.53;97850.38;7390794;19;20257;-75
2022/12/04 12:47:50;;;;;;;;;;;;;;;5.20;73.60;97853.59;7387328;19;19950;-75
2022/12/04 12:50:21;;;;;;;;;;;;;;;5.13;73.45;97844.59;7384872;19;19914;-75
2022/12/04 12:52:58;;;;;;;;;;;;;;;4.98;74.08;97843.34;7387935;19;20280;-74
2022/12/04 12:55:26;;;;;;;;;;;;;;;5.12;73.67;97842.94;7385957;19;20456;-74
2022/12/04 12:58:13;;;;;;;;;;;;;;;5.11;73.69;97840.44;7386641;19;19998;-74
2022/12/04 13:00:44;;;;;;;;;;;;;;;4.94;74.25;97834.06;7388213;19;19943;-74
2022/12/04 13:03:21;;;;;;;;;;;;;;;4.95;74.02;97840.97;7387179;19;19915;-74
2022/12/04 13:05:49;;;;;;;;;;;;;;;5.06;73.68;97828.59;7386796;19;19929;-74
2022/12/04 13:08:16;;;;;;;;;;;;;;;4.95;74.04;97825.22;7384111;19;19926;-74
2022/12/04 13:10:45;;;;;;;;;;;;;;;4.84;74.53;97827.03;7387335;19;19935;-74
2022/12/04 13:13:27;;;;;;;;;;;;;;;4.86;74.07;97826.03;7385264;19;19922;-74
2022/12/04 13:15:56;;;;;;;;;;;;;;;4.91;73.85;97839.59;7387084;19;22324;-74
2022/12/04 13:18:24;;;;;;;;;;;;;;;4.78;74.18;97845.06;7388967;19;20263;-74
2022/12/04 13:20:52;;;;;;;;;;;;;;;4.77;74.07;97846.03;7386670;19;19963;-74
2022/12/04 13:23:37;;;;;;;;;;;;;;;4.79;74.81;97847.56;7382866;19;19922;-75
2022/12/04 13:26:03;;;;;;;;;;;;;;;4.95;74.71;97840.97;7385014;19;19934;-74